createdAt,value
2018-12-19T00:00:34.645Z,1.05
2018-12-19T00:03:08.552Z,1.12
2018-12-19T00:05:43.879Z,1.02
2018-12-19T00:08:21.643Z,0.98
2018-12-19T00:10:52.377Z,0.96
2018-12-19T00:13:22.911Z,0.97
2018-12-19T00:15:53.389Z,0.94
2018-12-19T00:18:23.919Z,0.91
2018-12-19T00:20:54.419Z,0.90
2018-12-19T00:23:25.015Z,0.84
2018-12-19T00:25:55.611Z,0.91
2018-12-19T00:28:28.147Z,0.86
2018-12-19T00:31:00.731Z,0.75
2018-12-19T00:33:33.396Z,0.67
2018-12-19T00:36:06.311Z,0.64
2018-12-19T00:38:38.366Z,0.63
2018-12-19T00:41:08.918Z,0.59
2018-12-19T00:43:39.710Z,0.62
2018-12-19T00:46:10.210Z,0.61
2018-12-19T00:48:40.746Z,0.55
2018-12-19T00:51:11.306Z,0.52
2018-12-19T00:53:41.861Z,0.53
2018-12-19T00:56:12.362Z,0.47
2018-12-19T00:58:42.927Z,0.43
2018-12-19T01:01:13.386Z,0.47
2018-12-19T01:03:43.946Z,0.45
2018-12-19T01:06:14.500Z,0.38
2018-12-19T01:08:45.016Z,0.38
2018-12-19T01:11:15.668Z,0.28
2018-12-19T01:13:47.431Z,0.26
2018-12-19T01:16:17.994Z,0.21
2018-12-19T01:18:48.552Z,0.25
2018-12-19T01:21:19.206Z,0.16
2018-12-19T01:23:49.693Z,0.27
2018-12-19T01:26:20.242Z,0.31
2018-12-19T01:28:50.886Z,0.25
2018-12-19T01:31:21.470Z,0.23
2018-12-19T01:33:52.132Z,0.24
2018-12-19T01:36:22.674Z,0.33
2018-12-19T01:38:53.282Z,0.27
2018-12-19T01:41:23.799Z,0.22
2018-12-19T01:43:54.439Z,0.23
2018-12-19T01:46:25.006Z,0.20
2018-12-19T01:48:55.616Z,0.27
2018-12-19T01:51:26.289Z,0.19
2018-12-19T01:53:56.803Z,0.15
2018-12-19T01:56:27.416Z,0.17
2018-12-19T01:58:57.954Z,0.20
2018-12-19T02:01:28.481Z,0.05
2018-12-19T02:03:59.095Z,0.06
2018-12-19T02:06:29.704Z,0.25
2018-12-19T02:09:00.237Z,0.20
2018-12-19T02:11:30.837Z,0.19
2018-12-19T02:14:01.407Z,0.23
2018-12-19T02:16:32.035Z,0.21
2018-12-19T02:19:02.601Z,0.17
2018-12-19T02:21:33.695Z,0.15
2018-12-19T02:24:04.346Z,0.17
2018-12-19T02:26:35.061Z,0.06
2018-12-19T02:29:05.734Z,0.18
2018-12-19T02:31:36.335Z,0.05
2018-12-19T02:34:07.081Z,0.09
2018-12-19T02:36:37.953Z,0.14
2018-12-19T02:39:09.251Z,0.20
2018-12-19T02:41:39.893Z,0.11
2018-12-19T02:44:10.517Z,0.13
2018-12-19T02:46:41.041Z,0.06
2018-12-19T02:49:11.602Z,0.02
2018-12-19T02:51:42.116Z,-0.12
2018-12-19T02:54:12.723Z,-0.04
2018-12-19T02:56:43.203Z,-0.14
2018-12-19T02:59:13.877Z,-0.14
2018-12-19T03:01:44.390Z,-0.17
2018-12-19T03:04:14.945Z,-0.17
2018-12-19T03:06:45.487Z,-0.17
2018-12-19T03:09:16.069Z,-0.17
2018-12-19T03:11:46.640Z,-0.22
2018-12-19T03:14:17.190Z,-0.24
2018-12-19T03:16:47.715Z,-0.28
2018-12-19T03:19:18.283Z,-0.23
2018-12-19T03:21:48.837Z,-0.27
2018-12-19T03:24:19.437Z,-0.38
2018-12-19T03:26:50.028Z,-0.32
2018-12-19T03:29:20.651Z,-0.30
2018-12-19T03:31:51.231Z,-0.32
2018-12-19T03:34:22.953Z,-0.37
2018-12-19T03:36:53.507Z,-0.42
2018-12-19T03:39:24.085Z,-0.43
2018-12-19T03:41:54.656Z,-0.36
2018-12-19T03:44:25.278Z,-0.40
2018-12-19T03:46:55.924Z,-0.46
2018-12-19T03:49:27.027Z,-0.55
2018-12-19T03:51:57.609Z,-0.48
2018-12-19T03:54:28.746Z,-0.42
2018-12-19T03:56:59.957Z,-0.45
2018-12-19T03:59:30.516Z,-0.41
2018-12-19T04:02:01.102Z,-0.52
2018-12-19T04:04:31.689Z,-0.53
2018-12-19T04:07:02.461Z,-0.52
2018-12-19T04:09:33.046Z,-0.53
2018-12-19T04:12:03.687Z,-0.58
2018-12-19T04:14:34.399Z,-0.47
2018-12-19T04:17:05.348Z,-0.49
2018-12-19T04:19:35.882Z,-0.49
2018-12-19T04:22:08.529Z,-0.48
2018-12-19T04:24:39.082Z,-0.48
2018-12-19T04:27:09.626Z,-0.50
2018-12-19T04:29:40.690Z,-0.48
2018-12-19T04:32:11.466Z,-0.53
2018-12-19T04:34:42.111Z,-0.53
2018-12-19T04:37:12.657Z,-0.45
2018-12-19T04:39:43.209Z,-0.45
2018-12-19T04:42:13.815Z,-0.53
2018-12-19T04:44:44.431Z,-0.50
2018-12-19T04:47:14.921Z,-0.44
2018-12-19T04:49:45.447Z,-0.45
2018-12-19T04:52:16.059Z,-0.44
2018-12-19T04:54:46.631Z,-0.47
2018-12-19T04:57:17.213Z,-0.41
2018-12-19T04:59:47.963Z,-0.37
2018-12-19T05:02:18.553Z,-0.37
2018-12-19T05:04:49.194Z,-0.42
2018-12-19T05:07:21.283Z,-0.48
2018-12-19T05:09:52.060Z,-0.44
2018-12-19T05:12:22.622Z,-0.39
2018-12-19T05:14:53.391Z,-0.41
2018-12-19T05:17:24.024Z,-0.36
2018-12-19T05:19:55.024Z,-0.47
2018-12-19T05:22:25.650Z,-0.39
2018-12-19T05:24:56.285Z,-0.45
2018-12-19T05:27:27.878Z,-0.47
2018-12-19T05:29:58.542Z,-0.50
2018-12-19T05:32:29.052Z,-0.46
2018-12-19T05:34:59.698Z,-0.46
2018-12-19T05:37:30.278Z,-0.45
2018-12-19T05:40:00.903Z,-0.39
2018-12-19T05:42:31.500Z,-0.41
2018-12-19T05:45:02.107Z,-0.37
2018-12-19T05:47:33.094Z,-0.43
2018-12-19T05:50:04.279Z,-0.40
2018-12-19T05:52:35.512Z,-0.47
2018-12-19T05:55:06.900Z,-0.52
2018-12-19T05:57:37.706Z,-0.50
2018-12-19T06:00:09.176Z,-0.45
2018-12-19T06:02:39.720Z,-0.48
2018-12-19T06:05:10.302Z,-0.54
2018-12-19T06:07:40.980Z,-0.40
2018-12-19T06:10:11.680Z,-0.51
2018-12-19T06:12:42.368Z,-0.49
2018-12-19T06:15:17.668Z,-0.53
2018-12-19T06:17:48.738Z,-0.69
2018-12-19T06:20:19.393Z,-0.59
2018-12-19T06:22:50.098Z,-0.61
2018-12-19T06:25:20.744Z,-0.66
2018-12-19T06:27:51.447Z,-0.74
2018-12-19T06:30:22.725Z,-0.63
2018-12-19T06:32:53.606Z,-0.62
2018-12-19T06:35:24.414Z,-0.69
2018-12-19T06:37:59.856Z,-0.71
2018-12-19T06:40:34.297Z,-0.64
2018-12-19T06:43:05.127Z,-0.65
2018-12-19T06:45:36.020Z,-0.70
2018-12-19T06:48:06.674Z,-0.64
2018-12-19T06:50:37.272Z,-0.63
2018-12-19T06:53:08.234Z,-0.68
2018-12-19T06:55:38.988Z,-0.65
2018-12-19T06:58:09.598Z,-0.70
2018-12-19T07:00:40.130Z,-0.68
2018-12-19T07:03:10.901Z,-0.65
2018-12-19T07:05:41.581Z,-0.72
2018-12-19T07:08:12.553Z,-0.68
2018-12-19T07:10:43.792Z,-0.74
2018-12-19T07:13:14.327Z,-0.75
2018-12-19T07:15:44.932Z,-0.69
2018-12-19T07:18:16.580Z,-0.63
2018-12-19T07:20:47.225Z,-0.59
2018-12-19T07:23:17.854Z,-0.57
2018-12-19T07:25:48.490Z,-0.66
2018-12-19T07:28:19.094Z,-0.71
2018-12-19T07:30:49.652Z,-0.58
2018-12-19T07:33:20.175Z,-0.58
2018-12-19T07:35:50.905Z,-0.54
2018-12-19T07:38:21.509Z,-0.58
2018-12-19T07:40:52.063Z,-0.52
2018-12-19T07:43:22.573Z,-0.57
2018-12-19T07:45:53.426Z,-0.56
2018-12-19T07:48:24.156Z,-0.60
2018-12-19T07:50:54.687Z,-0.49
2018-12-19T07:53:25.243Z,-0.47
2018-12-19T07:55:56.057Z,-0.50
2018-12-19T07:58:26.617Z,-0.51
2018-12-19T08:00:57.189Z,-0.42
2018-12-19T08:03:27.746Z,-0.36
2018-12-19T08:05:58.308Z,-0.35
2018-12-19T08:08:28.882Z,-0.24
2018-12-19T08:10:59.527Z,0.00
2018-12-19T08:13:30.057Z,0.03
2018-12-19T08:16:00.731Z,0.13
2018-12-19T08:18:31.339Z,0.01
2018-12-19T08:21:01.844Z,0.03
2018-12-19T08:23:32.489Z,0.08
2018-12-19T08:26:02.977Z,0.16
2018-12-19T08:28:33.569Z,0.27
2018-12-19T08:31:04.236Z,0.25
2018-12-19T08:33:34.865Z,0.44
2018-12-19T08:36:05.459Z,0.60
2018-12-19T08:38:35.990Z,0.46
2018-12-19T08:41:06.528Z,0.74
2018-12-19T08:43:37.302Z,0.67
2018-12-19T08:46:08.970Z,0.72
2018-12-19T08:48:40.330Z,0.33
2018-12-19T08:51:10.902Z,0.38
2018-12-19T08:53:41.527Z,0.79
2018-12-19T08:56:12.459Z,0.63
2018-12-19T08:58:42.952Z,0.38
2018-12-19T09:01:13.438Z,0.59
2018-12-19T09:03:43.943Z,0.97
2018-12-19T09:06:14.510Z,0.51
2018-12-19T09:08:45.056Z,0.97
2018-12-19T09:11:15.645Z,1.18
2018-12-19T09:13:46.331Z,1.08
2018-12-19T09:16:16.914Z,1.09
2018-12-19T09:18:47.434Z,1.02
2018-12-19T09:21:19.740Z,0.84
2018-12-19T09:23:50.335Z,1.12
2018-12-19T09:26:21.943Z,0.80
2018-12-19T09:28:52.406Z,1.27
2018-12-19T09:31:23.423Z,1.71
2018-12-19T09:33:54.039Z,1.80
2018-12-19T09:36:24.934Z,1.29
2018-12-19T09:38:55.678Z,1.76
2018-12-19T09:41:26.475Z,1.68
2018-12-19T09:43:56.977Z,1.67
2018-12-19T09:46:27.450Z,1.47
2018-12-19T09:48:57.934Z,1.96
2018-12-19T09:51:29.045Z,1.68
2018-12-19T09:53:59.572Z,2.08
2018-12-19T09:56:30.363Z,2.08
2018-12-19T09:59:00.865Z,2.07
2018-12-19T10:01:31.417Z,2.31
2018-12-19T10:04:01.992Z,2.34
2018-12-19T10:06:33.790Z,2.22
2018-12-19T10:09:14.879Z,1.55
2018-12-19T10:11:44.007Z,2.18
2018-12-19T10:14:14.618Z,1.71
2018-12-19T10:16:45.182Z,2.60
2018-12-19T10:19:15.672Z,1.92
2018-12-19T10:21:47.404Z,2.53
2018-12-19T10:24:18.106Z,2.94
2018-12-19T10:26:48.606Z,2.53
2018-12-19T10:29:19.299Z,2.68
2018-12-19T10:31:49.787Z,2.21
2018-12-19T10:34:21.427Z,2.48
2018-12-19T10:36:52.124Z,2.54
2018-12-19T10:39:23.226Z,2.28
2018-12-19T10:41:53.712Z,1.76
2018-12-19T10:44:24.690Z,2.37
2018-12-19T10:46:58.095Z,2.26
2018-12-19T10:49:28.616Z,2.97
2018-12-19T10:51:59.106Z,1.95
2018-12-19T10:54:29.622Z,2.30
2018-12-19T10:57:00.110Z,2.18
2018-12-19T10:59:30.593Z,2.99
2018-12-19T11:02:01.145Z,3.12
2018-12-19T11:04:31.912Z,3.14
2018-12-19T11:07:02.461Z,3.15
2018-12-19T11:09:33.233Z,2.10
2018-12-19T11:12:03.904Z,1.78
2018-12-19T11:14:34.509Z,1.90
2018-12-19T11:17:12.019Z,1.71
2018-12-19T11:19:42.510Z,2.18
2018-12-19T11:22:13.110Z,2.03
2018-12-19T11:24:43.589Z,1.91
2018-12-19T11:27:14.080Z,1.85
2018-12-19T11:29:45.117Z,1.87
2018-12-19T11:32:15.586Z,1.43
2018-12-19T11:34:46.081Z,1.95
2018-12-19T11:37:16.730Z,1.86
2018-12-19T11:39:47.204Z,1.43
2018-12-19T11:42:17.718Z,1.56
2018-12-19T11:44:48.167Z,2.00
2018-12-19T11:47:18.766Z,1.60
2018-12-19T11:49:49.419Z,1.91
2018-12-19T11:52:20.351Z,1.95
2018-12-19T11:54:52.252Z,1.65
2018-12-19T11:57:22.834Z,1.65
2018-12-19T11:59:53.490Z,1.91
2018-12-19T12:02:24.229Z,1.91
2018-12-19T12:04:54.978Z,1.69
2018-12-19T12:07:27.731Z,2.18
2018-12-19T12:09:58.394Z,1.87
2018-12-19T12:12:29.050Z,1.97
2018-12-19T12:14:59.717Z,1.78
2018-12-19T12:17:30.384Z,2.06
2018-12-19T12:20:02.156Z,1.89
2018-12-19T12:22:32.658Z,2.05
2018-12-19T12:25:03.308Z,2.08
2018-12-19T12:27:33.958Z,1.84
2018-12-19T12:30:04.636Z,2.17
2018-12-19T12:32:35.545Z,1.81
2018-12-19T12:35:07.543Z,2.01
2018-12-19T12:37:38.183Z,2.09
2018-12-19T12:40:09.869Z,2.05
2018-12-19T12:42:40.552Z,1.88
2018-12-19T12:45:11.249Z,1.87
2018-12-19T12:47:42.474Z,1.71
2018-12-19T12:50:13.143Z,1.69
2018-12-19T12:52:43.671Z,1.79
2018-12-19T12:55:14.276Z,1.74
2018-12-19T12:57:45.721Z,1.82
2018-12-19T13:00:16.678Z,1.58
2018-12-19T13:02:47.207Z,1.62
2018-12-19T13:05:17.797Z,1.64
2018-12-19T13:07:48.531Z,1.60
2018-12-19T13:10:19.200Z,1.74
2018-12-19T13:12:49.801Z,1.75
2018-12-19T13:15:53.815Z,1.77
2018-12-19T13:21:26.340Z,1.58
2018-12-19T13:23:58.709Z,1.65
2018-12-19T13:26:30.780Z,1.60
2018-12-19T13:29:18.815Z,1.56
2018-12-19T13:31:50.856Z,1.62
2018-12-19T13:34:22.446Z,1.53
2018-12-19T13:36:53.969Z,1.57
2018-12-19T13:39:25.098Z,1.58
2018-12-19T13:41:56.982Z,1.54
2018-12-19T13:44:27.635Z,1.59
2018-12-19T13:46:58.905Z,1.52
2018-12-19T13:49:30.126Z,1.49
2018-12-19T13:52:00.725Z,1.50
2018-12-19T13:54:31.339Z,1.46
2018-12-19T13:57:02.066Z,1.51
2018-12-19T13:59:32.737Z,1.47
2018-12-19T14:02:03.493Z,1.47
2018-12-19T14:04:34.309Z,1.47
2018-12-19T14:07:06.266Z,1.45
2018-12-19T14:09:37.034Z,1.45
2018-12-19T14:12:12.263Z,1.45
2018-12-19T14:14:40.261Z,1.49
2018-12-19T14:17:10.861Z,1.48
2018-12-19T14:19:41.425Z,1.44
2018-12-19T14:22:12.072Z,1.43
2018-12-19T14:24:42.677Z,1.42
2018-12-19T14:27:13.276Z,1.45
2018-12-19T14:29:43.883Z,1.47
2018-12-19T14:32:14.525Z,1.50
2018-12-19T14:34:45.144Z,1.47
2018-12-19T14:37:15.741Z,1.46
2018-12-19T14:39:46.393Z,1.43
2018-12-19T14:42:19.191Z,1.45
2018-12-19T14:44:49.656Z,1.40
2018-12-19T14:47:20.195Z,1.45
2018-12-19T14:49:53.220Z,1.43
2018-12-19T14:52:24.532Z,1.44
2018-12-19T14:54:55.518Z,1.43
2018-12-19T14:57:27.157Z,1.40
2018-12-19T15:02:56.611Z,1.42
2018-12-19T15:05:27.178Z,1.42
2018-12-19T15:07:58.003Z,1.38
2018-12-19T15:10:28.720Z,1.41
2018-12-19T15:12:59.423Z,1.40
2018-12-19T15:15:33.925Z,1.42
2018-12-19T15:18:09.342Z,1.40
2018-12-19T15:20:41.208Z,1.44
2018-12-19T15:23:12.888Z,1.38
2018-12-19T15:25:43.529Z,1.49
2018-12-19T15:28:14.534Z,1.44
2018-12-19T15:30:45.204Z,1.45
2018-12-19T15:33:15.814Z,1.44
2018-12-19T15:35:46.330Z,1.49
2018-12-19T15:38:16.898Z,1.50
2018-12-19T15:40:47.537Z,1.38
2018-12-19T15:43:18.150Z,1.43
2018-12-19T15:45:48.704Z,1.50
2018-12-19T15:48:19.360Z,1.49
2018-12-19T15:50:50.066Z,1.43
2018-12-19T15:53:21.652Z,1.43
2018-12-19T15:55:52.254Z,1.47
2018-12-19T15:58:23.030Z,1.50
2018-12-19T16:00:53.621Z,1.52
2018-12-19T16:03:24.144Z,1.45
2018-12-19T16:06:07.078Z,1.44
2018-12-19T16:08:37.692Z,1.45
2018-12-19T16:11:08.180Z,1.45
2018-12-19T16:13:38.759Z,1.42
2018-12-19T16:16:09.466Z,1.43
2018-12-19T16:18:40.037Z,1.43
2018-12-19T16:21:10.557Z,1.44
2018-12-19T16:23:41.698Z,1.43
2018-12-19T16:26:12.353Z,1.40
2018-12-19T16:28:43.019Z,1.36
2018-12-19T16:31:13.695Z,1.30
2018-12-19T16:33:44.801Z,1.27
2018-12-19T16:36:15.345Z,1.22
2018-12-19T16:38:45.887Z,1.28
2018-12-19T16:41:16.460Z,1.16
2018-12-19T16:43:47.056Z,1.09
2018-12-19T16:46:18.352Z,1.17
2018-12-19T16:48:48.860Z,1.03
2018-12-19T16:51:19.726Z,0.97
2018-12-19T16:53:50.371Z,0.93
2018-12-19T16:56:20.908Z,0.90
2018-12-19T16:58:51.596Z,0.93
2018-12-19T17:01:22.162Z,0.89
2018-12-19T17:03:52.690Z,0.80
2018-12-19T17:06:23.262Z,0.76
2018-12-19T17:08:53.766Z,0.82
2018-12-19T17:11:24.437Z,0.72
2018-12-19T17:13:55.208Z,0.76
2018-12-19T17:16:26.511Z,0.74
2018-12-19T17:18:56.966Z,0.75
2018-12-19T17:21:27.480Z,0.69
2018-12-19T17:23:58.030Z,0.73
2018-12-19T17:26:28.486Z,0.80
2018-12-19T17:28:59.067Z,0.73
2018-12-19T17:31:29.506Z,0.72
2018-12-19T17:34:00.209Z,0.66
2018-12-19T17:36:31.745Z,0.60
2018-12-19T17:39:02.410Z,0.59
2018-12-19T17:41:34.972Z,0.69
2018-12-19T17:44:05.529Z,0.74
2018-12-19T17:46:36.186Z,0.72
2018-12-19T17:49:06.723Z,0.72
2018-12-19T17:51:37.343Z,0.68
2018-12-19T17:54:07.874Z,0.54
2018-12-19T17:56:38.403Z,0.68
2018-12-19T17:59:09.013Z,0.64
2018-12-19T18:01:39.682Z,0.64
2018-12-19T18:04:26.701Z,0.73
2018-12-19T18:06:57.350Z,0.69
2018-12-19T18:09:29.409Z,0.75
2018-12-19T18:11:59.901Z,0.82
2018-12-19T18:14:30.439Z,0.74
2018-12-19T18:17:00.904Z,0.69
2018-12-19T18:19:31.449Z,0.71
2018-12-19T18:22:02.070Z,0.75
2018-12-19T18:24:32.704Z,0.80
2018-12-19T18:27:03.234Z,0.82
2018-12-19T18:29:33.807Z,0.73
2018-12-19T18:32:04.356Z,0.85
2018-12-19T18:34:34.901Z,0.80
2018-12-19T18:37:05.469Z,0.82
2018-12-19T18:39:36.009Z,0.75
2018-12-19T18:42:06.678Z,0.76
2018-12-19T18:44:37.214Z,0.77
2018-12-19T18:47:07.722Z,0.81
2018-12-19T18:49:38.189Z,0.72
2018-12-19T18:52:10.436Z,0.75
2018-12-19T18:54:40.933Z,0.75
2018-12-19T18:57:11.527Z,0.69
2018-12-19T18:59:42.217Z,0.70
2018-12-19T19:02:13.139Z,0.70
2018-12-19T19:04:43.607Z,0.88
2018-12-19T19:07:14.165Z,0.81
2018-12-19T19:12:50.425Z,0.86
2018-12-19T19:15:20.938Z,0.78
2018-12-19T19:17:51.425Z,0.81
2018-12-19T19:20:22.006Z,0.82
2018-12-19T19:22:52.614Z,0.85
2018-12-19T19:25:23.754Z,0.73
2018-12-19T19:27:54.218Z,0.81
2018-12-19T19:30:24.658Z,0.83
2018-12-19T19:32:55.228Z,0.70
2018-12-19T19:35:25.672Z,0.67
2018-12-19T19:37:56.215Z,0.77
2018-12-19T19:40:26.706Z,0.75
2018-12-19T19:42:57.365Z,0.74
2018-12-19T19:45:27.911Z,0.63
2018-12-19T19:47:58.459Z,0.74
2018-12-19T19:50:29.023Z,0.77
2018-12-19T19:52:59.606Z,0.87
2018-12-19T19:55:30.268Z,0.90
2018-12-19T19:58:02.824Z,0.69
2018-12-19T20:00:33.789Z,0.73
2018-12-19T20:03:04.461Z,0.88
2018-12-19T20:05:35.707Z,0.74
2018-12-19T20:08:06.265Z,0.73
2018-12-19T20:10:36.815Z,0.67
2018-12-19T20:13:08.818Z,0.77
2018-12-19T20:15:40.374Z,0.73
2018-12-19T20:18:13.785Z,0.84
2018-12-19T20:20:44.280Z,0.74
2018-12-19T20:23:14.912Z,0.72
2018-12-19T20:26:08.355Z,0.73
2018-12-19T20:29:06.862Z,0.79
2018-12-19T20:31:43.823Z,0.82
2018-12-19T20:34:15.233Z,0.77
2018-12-19T20:37:04.520Z,0.87
2018-12-19T20:39:37.301Z,0.89
2018-12-19T20:42:07.848Z,0.90
2018-12-19T20:44:38.477Z,0.76
2018-12-19T20:47:09.037Z,0.92
2018-12-19T20:49:39.537Z,0.78
2018-12-19T20:52:10.406Z,0.82
2018-12-19T20:54:41.354Z,0.75
2018-12-19T20:57:11.992Z,0.90
2018-12-19T20:59:42.663Z,0.89
2018-12-19T21:02:13.421Z,0.80
2018-12-19T21:04:44.118Z,0.93
2018-12-19T21:07:14.888Z,0.83
2018-12-19T21:09:45.525Z,0.78
2018-12-19T21:12:16.065Z,0.62
2018-12-19T21:14:47.673Z,0.64
2018-12-19T21:17:23.537Z,0.78
2018-12-19T21:19:54.035Z,0.66
2018-12-19T21:22:24.571Z,0.71
2018-12-19T21:24:55.044Z,0.90
2018-12-19T21:27:25.517Z,0.71
2018-12-19T21:30:03.072Z,0.79
2018-12-19T21:32:40.298Z,0.77
2018-12-19T21:35:11.046Z,0.67
2018-12-19T21:37:41.654Z,0.77
2018-12-19T21:40:12.395Z,0.79
2018-12-19T21:42:43.239Z,0.86
2018-12-19T21:45:16.903Z,0.67
2018-12-19T21:47:47.587Z,0.87
2018-12-19T21:50:18.085Z,0.60
2018-12-19T21:52:48.722Z,0.78
2018-12-19T21:55:21.951Z,0.76
2018-12-19T21:57:52.738Z,0.77
2018-12-19T22:03:12.730Z,0.72
2018-12-19T22:05:43.437Z,0.76
2018-12-19T22:08:14.077Z,0.71
2018-12-19T22:10:45.634Z,0.62
2018-12-19T22:13:17.170Z,0.57
2018-12-19T22:15:48.323Z,0.60
2018-12-19T22:18:24.367Z,0.70
2018-12-19T22:20:56.430Z,0.61
2018-12-19T22:23:27.226Z,0.57
2018-12-19T22:25:59.027Z,0.57
2018-12-19T22:28:29.639Z,0.66
2018-12-19T22:31:00.084Z,0.76
2018-12-19T22:33:30.563Z,0.62
2018-12-19T22:36:01.055Z,0.63
2018-12-19T22:38:31.572Z,0.76
2018-12-19T22:41:02.417Z,0.68
2018-12-19T22:43:32.964Z,0.60
2018-12-19T22:46:03.636Z,0.62
2018-12-19T22:48:34.165Z,0.53
2018-12-19T22:51:04.863Z,0.55
2018-12-19T22:53:35.511Z,0.72
2018-12-19T22:56:06.076Z,0.62
2018-12-19T22:58:36.803Z,0.61
2018-12-19T23:02:14.571Z,0.53
2018-12-19T23:04:45.124Z,0.54
2018-12-19T23:07:15.603Z,0.60
2018-12-19T23:09:47.283Z,0.73
2018-12-19T23:12:17.822Z,0.76
2018-12-19T23:14:48.558Z,0.57
2018-12-19T23:17:29.866Z,0.66
2018-12-19T23:20:06.668Z,0.83
2018-12-19T23:22:42.821Z,0.88
2018-12-19T23:25:18.991Z,0.79
2018-12-19T23:27:51.657Z,0.82
2018-12-19T23:30:23.148Z,0.97
2018-12-19T23:32:53.731Z,0.96
2018-12-19T23:35:24.458Z,0.75
2018-12-19T23:37:55.059Z,0.60
2018-12-19T23:40:25.707Z,0.65
2018-12-19T23:42:57.441Z,0.53
2018-12-19T23:45:28.006Z,0.69
2018-12-19T23:47:59.588Z,0.49
2018-12-19T23:50:30.106Z,0.67
2018-12-19T23:53:00.639Z,0.66
2018-12-19T23:55:31.189Z,0.59
2018-12-19T23:58:01.745Z,0.59
